Pagrindinis puslapis
METAR-TAF:

METAR-TAF

Oro uostai :

Yasuj, Iranas

platuma: 30-41-49N, ilguma: 051-33E, Aukštis: 1825 m

Dabartinis oras

Ataskaita buvo paskelbta 30 minutes, ne 16:00 UTC
Vėjas 8 kt iš Rytų
Temperatūra 9°C
Drėgmė 81%
Slėgis 1013 hPa
Matomumas: 5000 m
Mažai debesys ne aukštis 3000 ft, Liūtiniai kamuoliniai debesys.
Su prošvaistėmis ne aukštis 3500 ft
Su prošvaistėmis ne aukštis 8000 ft
perkūnija

METAR: OISY 291600Z 09008KT 5000 TS FEW030CB BKN035 BKN080 09/06 Q1013

Laikas: 21:00 (16:30 UTC)


TAF: trūkstamas

Orai ataskaitas ir orų prognozės (METAR, TAF).

turimą stotys yra geltonos ir raudonos taškus žemėlapyje.

Perkelti pele per norėdami pamatyti stoties vardą.

Tada spustelėkite, norėdami matyti oro stebėjimo ir prognozės.

Norėdami pakeisti žemėlapį: spustelėkite ant žalios mygtukų su juodo kryžiaus žemyn,; žalią mygtuką su brūkšneliu, jei norite nutolinti; arba žalių rodyklių gretimoms žemėlapius.


METAR-TAF: